sensor_id;sensor_type;location;lat;lon;timestamp;temperature;humidity
12771;DHT22;6449;47.666;9.160;2022-11-11T00:02:06;7.70;99.90
12771;DHT22;6449;47.666;9.160;2022-11-11T00:07:01;7.70;99.90
12771;DHT22;6449;47.666;9.160;2022-11-11T00:11:55;7.70;99.90
12771;DHT22;6449;47.666;9.160;2022-11-11T00:16:48;7.60;99.90
12771;DHT22;6449;47.666;9.160;2022-11-11T00:22:00;7.70;99.90
12771;DHT22;6449;47.666;9.160;2022-11-11T00:27:11;7.70;99.90
12771;DHT22;6449;47.666;9.160;2022-11-11T00:32:07;7.70;99.90
12771;DHT22;6449;47.666;9.160;2022-11-11T00:37:19;7.80;99.90
12771;DHT22;6449;47.666;9.160;2022-11-11T00:42:13;8.00;99.90
12771;DHT22;6449;47.666;9.160;2022-11-11T00:47:07;8.00;99.90
12771;DHT22;6449;47.666;9.160;2022-11-11T00:52:20;7.90;99.90
12771;DHT22;6449;47.666;9.160;2022-11-11T00:57:13;7.80;99.90
12771;DHT22;6449;47.666;9.160;2022-11-11T01:02:06;7.70;99.90
12771;DHT22;6449;47.666;9.160;2022-11-11T01:07:00;7.70;99.90
12771;DHT22;6449;47.666;9.160;2022-11-11T01:11:55;7.70;99.90
12771;DHT22;6449;47.666;9.160;2022-11-11T01:16:48;7.80;99.90
12771;DHT22;6449;47.666;9.160;2022-11-11T01:21:41;7.90;99.90
12771;DHT22;6449;47.666;9.160;2022-11-11T01:26:35;7.80;99.90
12771;DHT22;6449;47.666;9.160;2022-11-11T01:31:29;7.80;99.90
12771;DHT22;6449;47.666;9.160;2022-11-11T01:36:24;7.80;99.90
12771;DHT22;6449;47.666;9.160;2022-11-11T01:41:21;7.80;99.90
12771;DHT22;6449;47.666;9.160;2022-11-11T01:46:33;7.90;99.90
12771;DHT22;6449;47.666;9.160;2022-11-11T01:51:33;7.80;99.90
12771;DHT22;6449;47.666;9.160;2022-11-11T01:56:30;7.70;99.90
12771;DHT22;6449;47.666;9.160;2022-11-11T02:01:23;7.70;99.90
12771;DHT22;6449;47.666;9.160;2022-11-11T02:06:18;7.60;99.90
12771;DHT22;6449;47.666;9.160;2022-11-11T02:11:15;7.60;99.90
12771;DHT22;6449;47.666;9.160;2022-11-11T02:16:32;7.50;99.90
12771;DHT22;6449;47.666;9.160;2022-11-11T02:21:32;7.50;99.90
12771;DHT22;6449;47.666;9.160;2022-11-11T02:26:34;7.60;99.90
12771;DHT22;6449;47.666;9.160;2022-11-11T02:31:29;7.60;99.90
12771;DHT22;6449;47.666;9.160;2022-11-11T02:36:24;7.60;99.90
12771;DHT22;6449;47.666;9.160;2022-11-11T02:41:18;7.70;99.90
12771;DHT22;6449;47.666;9.160;2022-11-11T02:46:31;7.60;99.90
12771;DHT22;6449;47.666;9.160;2022-11-11T02:51:24;7.60;99.90
12771;DHT22;6449;47.666;9.160;2022-11-11T02:56:18;7.50;99.90
12771;DHT22;6449;47.666;9.160;2022-11-11T03:01:25;7.40;99.90
12771;DHT22;6449;47.666;9.160;2022-11-11T03:06:20;7.40;99.90
12771;DHT22;6449;47.666;9.160;2022-11-11T03:11:13;7.50;99.90
12771;DHT22;6449;47.666;9.160;2022-11-11T03:16:06;7.50;99.90
12771;DHT22;6449;47.666;9.160;2022-11-11T03:21:22;7.60;99.90
12771;DHT22;6449;47.666;9.160;2022-11-11T03:26:38;7.70;99.90
12771;DHT22;6449;47.666;9.160;2022-11-11T03:31:31;7.70;99.90
12771;DHT22;6449;47.666;9.160;2022-11-11T03:36:26;7.80;99.90
12771;DHT22;6449;47.666;9.160;2022-11-11T03:41:39;7.90;99.90
12771;DHT22;6449;47.666;9.160;2022-11-11T03:46:32;7.90;99.90
12771;DHT22;6449;47.666;9.160;2022-11-11T03:51:27;7.80;99.90
12771;DHT22;6449;47.666;9.160;2022-11-11T03:56:20;7.70;99.90
12771;DHT22;6449;47.666;9.160;2022-11-11T04:01:14;7.70;99.90
12771;DHT22;6449;47.666;9.160;2022-11-11T04:06:21;7.70;99.90
12771;DHT22;6449;47.666;9.160;2022-11-11T04:11:35;7.60;99.90
12771;DHT22;6449;47.666;9.160;2022-11-11T04:16:30;7.70;99.90
12771;DHT22;6449;47.666;9.160;2022-11-11T04:21:24;7.80;99.90
12771;DHT22;6449;47.666;9.160;2022-11-11T04:33:18;7.80;99.90
12771;DHT22;6449;47.666;9.160;2022-11-11T04:38:11;7.90;99.90
12771;DHT22;6449;47.666;9.160;2022-11-11T04:43:22;7.90;99.90
12771;DHT22;6449;47.666;9.160;2022-11-11T04:48:16;7.80;99.90
12771;DHT22;6449;47.666;9.160;2022-11-11T04:53:13;7.90;99.90
12771;DHT22;6449;47.666;9.160;2022-11-11T04:58:08;7.90;99.90
12771;DHT22;6449;47.666;9.160;2022-11-11T05:03:04;7.90;99.90
12771;DHT22;6449;47.666;9.160;2022-11-11T05:08:14;7.80;99.90
12771;DHT22;6449;47.666;9.160;2022-11-11T05:13:25;7.70;99.90
12771;DHT22;6449;47.666;9.160;2022-11-11T05:18:35;7.70;99.90
12771;DHT22;6449;47.666;9.160;2022-11-11T05:23:48;7.60;99.90
12771;DHT22;6449;47.666;9.160;2022-11-11T05:28:59;7.50;99.90
12771;DHT22;6449;47.666;9.160;2022-11-11T05:33:52;7.60;99.90
12771;DHT22;6449;47.666;9.160;2022-11-11T05:38:47;7.70;99.90
12771;DHT22;6449;47.666;9.160;2022-11-11T05:43:41;7.70;99.90
12771;DHT22;6449;47.666;9.160;2022-11-11T05:48:34;7.60;99.90
12771;DHT22;6449;47.666;9.160;2022-11-11T05:53:49;7.70;99.90
12771;DHT22;6449;47.666;9.160;2022-11-11T05:58:42;7.60;99.90
12771;DHT22;6449;47.666;9.160;2022-11-11T06:03:41;7.50;99.90
12771;DHT22;6449;47.666;9.160;2022-11-11T06:08:34;7.40;99.90
12771;DHT22;6449;47.666;9.160;2022-11-11T06:13:29;7.30;99.90
12771;DHT22;6449;47.666;9.160;2022-11-11T06:18:22;7.50;99.90
12771;DHT22;6449;47.666;9.160;2022-11-11T06:23:22;7.60;99.90
12771;DHT22;6449;47.666;9.160;2022-11-11T06:28:17;7.70;99.90
12771;DHT22;6449;47.666;9.160;2022-11-11T06:33:12;7.70;99.90
12771;DHT22;6449;47.666;9.160;2022-11-11T06:38:06;7.80;99.90
12771;DHT22;6449;47.666;9.160;2022-11-11T06:42:59;7.70;99.90
12771;DHT22;6449;47.666;9.160;2022-11-11T06:47:53;7.80;99.90
12771;DHT22;6449;47.666;9.160;2022-11-11T06:52:48;7.80;99.90
12771;DHT22;6449;47.666;9.160;2022-11-11T06:57:41;7.80;99.90
12771;DHT22;6449;47.666;9.160;2022-11-11T07:02:35;7.80;99.90
12771;DHT22;6449;47.666;9.160;2022-11-11T07:07:28;7.80;99.90
12771;DHT22;6449;47.666;9.160;2022-11-11T07:12:23;7.90;99.90
12771;DHT22;6449;47.666;9.160;2022-11-11T07:17:17;7.90;99.90
12771;DHT22;6449;47.666;9.160;2022-11-11T07:22:10;7.90;99.90
12771;DHT22;6449;47.666;9.160;2022-11-11T07:27:03;8.00;99.90
12771;DHT22;6449;47.666;9.160;2022-11-11T07:31:58;8.10;99.90
12771;DHT22;6449;47.666;9.160;2022-11-11T07:36:51;8.20;99.90
12771;DHT22;6449;47.666;9.160;2022-11-11T07:41:45;8.30;99.90
12771;DHT22;6449;47.666;9.160;2022-11-11T07:46:38;8.40;99.90
12771;DHT22;6449;47.666;9.160;2022-11-11T07:51:36;8.30;99.90
12771;DHT22;6449;47.666;9.160;2022-11-11T07:56:29;8.30;99.90
12771;DHT22;6449;47.666;9.160;2022-11-11T08:01:22;8.20;99.90
12771;DHT22;6449;47.666;9.160;2022-11-11T08:06:16;8.10;99.90
12771;DHT22;6449;47.666;9.160;2022-11-11T08:11:11;8.10;99.90
12771;DHT22;6449;47.666;9.160;2022-11-11T08:16:05;8.20;99.90
12771;DHT22;6449;47.666;9.160;2022-11-11T08:20:59;8.10;99.90
12771;DHT22;6449;47.666;9.160;2022-11-11T08:25:53;8.10;99.90
12771;DHT22;6449;47.666;9.160;2022-11-11T08:30:48;8.10;99.90
12771;DHT22;6449;47.666;9.160;2022-11-11T08:35:41;8.00;99.90
12771;DHT22;6449;47.666;9.160;2022-11-11T08:40:35;8.10;99.90
12771;DHT22;6449;47.666;9.160;2022-11-11T08:45:28;8.20;99.90
12771;DHT22;6449;47.666;9.160;2022-11-11T08:50:23;8.20;99.90
12771;DHT22;6449;47.666;9.160;2022-11-11T08:55:17;8.30;99.90
12771;DHT22;6449;47.666;9.160;2022-11-11T09:00:12;8.30;99.90
12771;DHT22;6449;47.666;9.160;2022-11-11T09:05:07;8.20;99.90
12771;DHT22;6449;47.666;9.160;2022-11-11T09:10:02;8.30;99.90
12771;DHT22;6449;47.666;9.160;2022-11-11T09:14:56;8.30;99.90
12771;DHT22;6449;47.666;9.160;2022-11-11T09:19:49;8.40;99.90
12771;DHT22;6449;47.666;9.160;2022-11-11T09:24:43;8.50;99.90
12771;DHT22;6449;47.666;9.160;2022-11-11T09:29:38;8.50;99.90
12771;DHT22;6449;47.666;9.160;2022-11-11T09:34:31;8.50;99.90
12771;DHT22;6449;47.666;9.160;2022-11-11T09:39:25;8.50;99.90
12771;DHT22;6449;47.666;9.160;2022-11-11T09:44:30;8.50;99.90
12771;DHT22;6449;47.666;9.160;2022-11-11T09:49:58;8.60;99.90
12771;DHT22;6449;47.666;9.160;2022-11-11T09:54:56;8.70;99.90
12771;DHT22;6449;47.666;9.160;2022-11-11T09:59:56;8.70;99.90
12771;DHT22;6449;47.666;9.160;2022-11-11T10:04:58;8.60;99.90
12771;DHT22;6449;47.666;9.160;2022-11-11T10:10:05;8.60;99.90
12771;DHT22;6449;47.666;9.160;2022-11-11T10:15:11;8.70;99.90
12771;DHT22;6449;47.666;9.160;2022-11-11T10:20:13;8.70;99.90
12771;DHT22;6449;47.666;9.160;2022-11-11T10:25:19;8.70;99.90
12771;DHT22;6449;47.666;9.160;2022-11-11T10:30:18;8.80;99.90
12771;DHT22;6449;47.666;9.160;2022-11-11T10:35:20;8.80;99.90
12771;DHT22;6449;47.666;9.160;2022-11-11T10:40:18;8.90;99.90
12771;DHT22;6449;47.666;9.160;2022-11-11T10:45:24;8.90;99.90
12771;DHT22;6449;47.666;9.160;2022-11-11T10:50:27;8.90;99.90
12771;DHT22;6449;47.666;9.160;2022-11-11T10:55:30;8.90;99.90
12771;DHT22;6449;47.666;9.160;2022-11-11T11:00:27;9.00;99.90
12771;DHT22;6449;47.666;9.160;2022-11-11T11:05:27;9.10;99.90
12771;DHT22;6449;47.666;9.160;2022-11-11T11:10:29;9.10;99.90
12771;DHT22;6449;47.666;9.160;2022-11-11T11:15:30;9.10;99.90
12771;DHT22;6449;47.666;9.160;2022-11-11T11:20:30;9.10;99.90
12771;DHT22;6449;47.666;9.160;2022-11-11T11:25:24;9.10;99.90
12771;DHT22;6449;47.666;9.160;2022-11-11T11:30:22;9.10;99.90
12771;DHT22;6449;47.666;9.160;2022-11-11T11:35:32;9.10;99.90
12771;DHT22;6449;47.666;9.160;2022-11-11T11:40:27;9.20;99.90
12771;DHT22;6449;47.666;9.160;2022-11-11T11:45:37;9.20;99.90
12771;DHT22;6449;47.666;9.160;2022-11-11T11:50:41;9.20;99.90
12771;DHT22;6449;47.666;9.160;2022-11-11T11:55:43;9.20;99.90
12771;DHT22;6449;47.666;9.160;2022-11-11T12:00:48;9.20;99.90
12771;DHT22;6449;47.666;9.160;2022-11-11T12:06:00;9.20;99.90
12771;DHT22;6449;47.666;9.160;2022-11-11T12:10:59;9.30;99.90
12771;DHT22;6449;47.666;9.160;2022-11-11T12:16:03;9.30;99.90
12771;DHT22;6449;47.666;9.160;2022-11-11T12:21:14;9.30;99.90
12771;DHT22;6449;47.666;9.160;2022-11-11T12:26:14;9.40;99.90
12771;DHT22;6449;47.666;9.160;2022-11-11T12:31:25;9.50;99.90
12771;DHT22;6449;47.666;9.160;2022-11-11T12:36:33;9.40;99.90
12771;DHT22;6449;47.666;9.160;2022-11-11T12:41:44;9.40;99.90
12771;DHT22;6449;47.666;9.160;2022-11-11T12:46:57;9.50;99.90
12771;DHT22;6449;47.666;9.160;2022-11-11T12:52:19;9.50;99.90
12771;DHT22;6449;47.666;9.160;2022-11-11T12:57:32;9.50;99.90
12771;DHT22;6449;47.666;9.160;2022-11-11T13:08:19;9.40;99.90
12771;DHT22;6449;47.666;9.160;2022-11-11T13:13:41;9.40;99.90
12771;DHT22;6449;47.666;9.160;2022-11-11T13:18:48;9.50;99.90
12771;DHT22;6449;47.666;9.160;2022-11-11T13:23:47;9.50;99.90
12771;DHT22;6449;47.666;9.160;2022-11-11T13:28:44;9.50;99.90
12771;DHT22;6449;47.666;9.160;2022-11-11T13:33:44;9.50;99.90
12771;DHT22;6449;47.666;9.160;2022-11-11T13:38:45;9.50;99.90
12771;DHT22;6449;47.666;9.160;2022-11-11T13:43:44;9.40;99.90
12771;DHT22;6449;47.666;9.160;2022-11-11T13:48:46;9.40;99.90
12771;DHT22;6449;47.666;9.160;2022-11-11T13:53:41;9.50;99.90
12771;DHT22;6449;47.666;9.160;2022-11-11T13:58:38;9.40;99.90
12771;DHT22;6449;47.666;9.160;2022-11-11T14:03:59;9.30;99.90
12771;DHT22;6449;47.666;9.160;2022-11-11T14:08:55;9.30;99.90
12771;DHT22;6449;47.666;9.160;2022-11-11T14:13:50;9.20;99.90
12771;DHT22;6449;47.666;9.160;2022-11-11T14:18:45;9.20;99.90
12771;DHT22;6449;47.666;9.160;2022-11-11T14:23:40;9.20;99.90
12771;DHT22;6449;47.666;9.160;2022-11-11T14:28:40;9.30;99.90
12771;DHT22;6449;47.666;9.160;2022-11-11T14:33:48;9.30;99.90
12771;DHT22;6449;47.666;9.160;2022-11-11T14:38:50;9.30;99.90
12771;DHT22;6449;47.666;9.160;2022-11-11T14:49:48;9.30;99.90
12771;DHT22;6449;47.666;9.160;2022-11-11T15:00:14;9.20;99.90
12771;DHT22;6449;47.666;9.160;2022-11-11T15:05:15;9.20;99.90
12771;DHT22;6449;47.666;9.160;2022-11-11T15:10:19;9.10;99.90
12771;DHT22;6449;47.666;9.160;2022-11-11T15:15:23;9.10;99.90
12771;DHT22;6449;47.666;9.160;2022-11-11T15:20:30;9.20;99.90
12771;DHT22;6449;47.666;9.160;2022-11-11T15:25:47;9.10;99.90
12771;DHT22;6449;47.666;9.160;2022-11-11T15:30:56;9.00;99.90
12771;DHT22;6449;47.666;9.160;2022-11-11T15:36:03;9.10;99.90
12771;DHT22;6449;47.666;9.160;2022-11-11T15:41:02;9.00;99.90
12771;DHT22;6449;47.666;9.160;2022-11-11T15:45:57;9.10;99.90
12771;DHT22;6449;47.666;9.160;2022-11-11T15:50:53;9.10;99.90
12771;DHT22;6449;47.666;9.160;2022-11-11T15:55:52;9.10;99.90
12771;DHT22;6449;47.666;9.160;2022-11-11T16:00:47;9.00;99.90
12771;DHT22;6449;47.666;9.160;2022-11-11T16:05:43;8.90;99.90
12771;DHT22;6449;47.666;9.160;2022-11-11T16:10:38;8.90;99.90
12771;DHT22;6449;47.666;9.160;2022-11-11T16:15:39;8.90;99.90
12771;DHT22;6449;47.666;9.160;2022-11-11T16:20:38;8.90;99.90
12771;DHT22;6449;47.666;9.160;2022-11-11T16:25:37;9.00;99.90
12771;DHT22;6449;47.666;9.160;2022-11-11T16:30:32;9.00;99.90
12771;DHT22;6449;47.666;9.160;2022-11-11T16:35:31;9.00;99.90
12771;DHT22;6449;47.666;9.160;2022-11-11T16:40:39;8.80;99.90
12771;DHT22;6449;47.666;9.160;2022-11-11T16:45:36;8.80;99.90
12771;DHT22;6449;47.666;9.160;2022-11-11T16:50:52;8.80;99.90
12771;DHT22;6449;47.666;9.160;2022-11-11T16:55:48;8.90;99.90
12771;DHT22;6449;47.666;9.160;2022-11-11T17:00:43;9.00;99.90
12771;DHT22;6449;47.666;9.160;2022-11-11T17:05:56;8.90;99.90
12771;DHT22;6449;47.666;9.160;2022-11-11T17:10:52;8.80;99.90
12771;DHT22;6449;47.666;9.160;2022-11-11T17:15:46;8.70;99.90
12771;DHT22;6449;47.666;9.160;2022-11-11T17:20:40;8.70;99.90
12771;DHT22;6449;47.666;9.160;2022-11-11T17:25:33;8.60;99.90
12771;DHT22;6449;47.666;9.160;2022-11-11T17:30:26;8.60;99.90
12771;DHT22;6449;47.666;9.160;2022-11-11T17:35:24;8.60;99.90
12771;DHT22;6449;47.666;9.160;2022-11-11T17:40:17;8.50;99.90
12771;DHT22;6449;47.666;9.160;2022-11-11T17:45:11;8.50;99.90
12771;DHT22;6449;47.666;9.160;2022-11-11T17:50:07;8.50;99.90
12771;DHT22;6449;47.666;9.160;2022-11-11T17:55:02;8.50;99.90
12771;DHT22;6449;47.666;9.160;2022-11-11T17:59:56;8.50;99.90
12771;DHT22;6449;47.666;9.160;2022-11-11T18:04:49;8.60;99.90
12771;DHT22;6449;47.666;9.160;2022-11-11T18:09:45;8.60;99.90
12771;DHT22;6449;47.666;9.160;2022-11-11T18:14:39;8.70;99.90
12771;DHT22;6449;47.666;9.160;2022-11-11T18:19:33;8.70;99.90
12771;DHT22;6449;47.666;9.160;2022-11-11T18:24:26;8.80;99.90
12771;DHT22;6449;47.666;9.160;2022-11-11T18:29:20;8.70;99.90
12771;DHT22;6449;47.666;9.160;2022-11-11T18:34:15;8.70;99.90
12771;DHT22;6449;47.666;9.160;2022-11-11T18:39:08;8.60;99.90
12771;DHT22;6449;47.666;9.160;2022-11-11T18:44:03;8.60;99.90
12771;DHT22;6449;47.666;9.160;2022-11-11T18:48:57;8.60;99.90
12771;DHT22;6449;47.666;9.160;2022-11-11T18:53:53;8.60;99.90
12771;DHT22;6449;47.666;9.160;2022-11-11T18:58:48;8.50;99.90
12771;DHT22;6449;47.666;9.160;2022-11-11T19:03:43;8.50;99.90
12771;DHT22;6449;47.666;9.160;2022-11-11T19:08:36;8.60;99.90
12771;DHT22;6449;47.666;9.160;2022-11-11T19:13:31;8.50;99.90
12771;DHT22;6449;47.666;9.160;2022-11-11T19:18:25;8.30;99.90
12771;DHT22;6449;47.666;9.160;2022-11-11T19:23:19;8.20;99.90
12771;DHT22;6449;47.666;9.160;2022-11-11T19:28:15;8.20;99.90
12771;DHT22;6449;47.666;9.160;2022-11-11T19:33:09;8.20;99.90
12771;DHT22;6449;47.666;9.160;2022-11-11T19:38:03;8.30;99.90
12771;DHT22;6449;47.666;9.160;2022-11-11T19:42:56;8.30;99.90
12771;DHT22;6449;47.666;9.160;2022-11-11T19:47:50;8.30;99.90
12771;DHT22;6449;47.666;9.160;2022-11-11T19:52:45;8.30;99.90
12771;DHT22;6449;47.666;9.160;2022-11-11T19:57:38;8.30;99.90
12771;DHT22;6449;47.666;9.160;2022-11-11T20:02:31;8.40;99.90
12771;DHT22;6449;47.666;9.160;2022-11-11T20:07:25;8.40;99.90
12771;DHT22;6449;47.666;9.160;2022-11-11T20:12:19;8.40;99.90
12771;DHT22;6449;47.666;9.160;2022-11-11T20:17:13;8.40;99.90
12771;DHT22;6449;47.666;9.160;2022-11-11T20:22:07;8.40;99.90
12771;DHT22;6449;47.666;9.160;2022-11-11T20:27:02;8.40;99.90
12771;DHT22;6449;47.666;9.160;2022-11-11T20:31:56;8.40;99.90
12771;DHT22;6449;47.666;9.160;2022-11-11T20:36:50;8.30;99.90
12771;DHT22;6449;47.666;9.160;2022-11-11T20:41:43;8.30;99.90
12771;DHT22;6449;47.666;9.160;2022-11-11T20:46:40;8.20;99.90
12771;DHT22;6449;47.666;9.160;2022-11-11T20:51:35;8.00;99.90
12771;DHT22;6449;47.666;9.160;2022-11-11T20:56:29;8.00;99.90
12771;DHT22;6449;47.666;9.160;2022-11-11T21:01:23;7.90;99.90
12771;DHT22;6449;47.666;9.160;2022-11-11T21:06:18;7.90;99.90
12771;DHT22;6449;47.666;9.160;2022-11-11T21:11:14;8.00;99.90
12771;DHT22;6449;47.666;9.160;2022-11-11T21:16:14;8.00;99.90
12771;DHT22;6449;47.666;9.160;2022-11-11T21:21:11;7.90;99.90
12771;DHT22;6449;47.666;9.160;2022-11-11T21:26:07;8.00;99.90
12771;DHT22;6449;47.666;9.160;2022-11-11T21:31:04;8.00;99.90
12771;DHT22;6449;47.666;9.160;2022-11-11T21:36:01;7.90;99.90
12771;DHT22;6449;47.666;9.160;2022-11-11T21:41:01;7.90;99.90
12771;DHT22;6449;47.666;9.160;2022-11-11T21:45:58;8.00;99.90
12771;DHT22;6449;47.666;9.160;2022-11-11T21:50:59;7.90;99.90
12771;DHT22;6449;47.666;9.160;2022-11-11T21:55:58;8.00;99.90
12771;DHT22;6449;47.666;9.160;2022-11-11T22:00:53;8.00;99.90
12771;DHT22;6449;47.666;9.160;2022-11-11T22:05:46;8.10;99.90
12771;DHT22;6449;47.666;9.160;2022-11-11T22:10:41;8.10;99.90
12771;DHT22;6449;47.666;9.160;2022-11-11T22:15:34;8.20;99.90
12771;DHT22;6449;47.666;9.160;2022-11-11T22:20:29;8.10;99.90
12771;DHT22;6449;47.666;9.160;2022-11-11T22:25:23;8.10;99.90
12771;DHT22;6449;47.666;9.160;2022-11-11T22:30:19;8.10;99.90
12771;DHT22;6449;47.666;9.160;2022-11-11T22:35:13;8.10;99.90
12771;DHT22;6449;47.666;9.160;2022-11-11T22:40:08;8.10;99.90
12771;DHT22;6449;47.666;9.160;2022-11-11T22:45:02;7.90;99.90
12771;DHT22;6449;47.666;9.160;2022-11-11T22:49:56;8.00;99.90
12771;DHT22;6449;47.666;9.160;2022-11-11T22:54:50;8.00;99.90
12771;DHT22;6449;47.666;9.160;2022-11-11T22:59:43;8.10;99.90
12771;DHT22;6449;47.666;9.160;2022-11-11T23:04:36;8.10;99.90
12771;DHT22;6449;47.666;9.160;2022-11-11T23:09:31;8.10;99.90
12771;DHT22;6449;47.666;9.160;2022-11-11T23:14:30;8.10;99.90
12771;DHT22;6449;47.666;9.160;2022-11-11T23:19:23;8.20;99.90
12771;DHT22;6449;47.666;9.160;2022-11-11T23:24:19;8.10;99.90
12771;DHT22;6449;47.666;9.160;2022-11-11T23:29:14;8.10;99.90
12771;DHT22;6449;47.666;9.160;2022-11-11T23:34:07;8.00;99.90
12771;DHT22;6449;47.666;9.160;2022-11-11T23:39:00;8.00;99.90
12771;DHT22;6449;47.666;9.160;2022-11-11T23:43:54;7.90;99.90
12771;DHT22;6449;47.666;9.160;2022-11-11T23:48:49;8.00;99.90
12771;DHT22;6449;47.666;9.160;2022-11-11T23:53:42;8.10;99.90
12771;DHT22;6449;47.666;9.160;2022-11-11T23:58:35;8.20;99.90
